Fahri Eksioglu — TCUH — position and weather

sailwx.info

Track history (hours):
 
Tides and Currents Weather Stations Pressure Air Temp Water Temp Dewpoint Dewpoint Depression Visibility Wind Speed Wind Dir Waves Ship Positions

Fahri Eksioglu

Last reported at 2015-Jul-02 08:34 UTC. Time now 2015-Jul-06 11:21 UTC.
Position N 46°33' E 032°18'.

Length 89 m; draft 3 m.

Type: Cargo ship. MMSI: 271000450.

Date/timePositionNaut miles runAvg speedWind from/ knotsBaromVisibWave heightAir tempDewpointWater temp
2015-Jul-02 08:34N 46°33' E 032°18'1010.0
2015-Jul-02 07:34N 46°32' E 032°03'1110.5
2015-Jul-02 06:33N 46°36' E 031°49'1010.4
2015-Jul-02 05:33N 46°35' E 031°34'10 9.4
2015-Jul-02 04:32N 46°35' E 031°20'36 6.8
2015-Jul-01 23:15N 45°60' E 031°07'4 6.2
2015-Jul-01 22:33N 45°56' E 031°04'6 6.4
2015-Jul-01 21:33N 45°51' E 030°59'6 6.3
2015-Jul-01 20:34N 45°46' E 030°54'6 6.3
2015-Jul-01 19:34N 45°41' E 030°48'7 6.5
2015-Jul-01 18:33N 45°35' E 030°43'6 6.4
2015-Jul-01 17:33N 45°30' E 030°38'  
2015-Jun-26 15:33N 40°58' E 028°54'0 0.0
2015-Jun-26 14:31N 40°58' E 028°54'0 0.0
2015-Jun-26 13:32N 40°58' E 028°54'0 0.0
2015-Jun-26 12:33N 40°58' E 028°54'0 0.0
2015-Jun-26 11:03N 40°58' E 028°54'1 1.6
2015-Jun-26 10:32N 40°57' E 028°55'6 6.2
2015-Jun-26 09:33N 40°52' E 028°51'295 8.0
2015-Jun-24 20:28N 37°36' E 024°07'11 9.0
2015-Jun-24 19:12N 37°37' E 023°53'6 9.4
2015-Jun-24 18:33N 37°38' E 023°45'8 8.4
2015-Jun-24 17:33N 37°45' E 023°39'8 7.8
2015-Jun-24 16:33N 37°50' E 023°31'9 8.6
2015-Jun-24 15:33N 37°52' E 023°21'9 8.7
2015-Jun-24 14:33N 37°53' E 023°10'22 7.2
2015-Jun-24 11:33N 38°06' E 022°47'  
Track history (hours):
 
Tides and Currents Weather Stations Pressure Air Temp Water Temp Dewpoint Dewpoint Depression Visibility Wind Speed Wind Dir Waves Ship Positions

Fahri Eksioglu

Last reported at 2015-Jul-02 08:34 UTC. Time now 2015-Jul-06 11:21 UTC.
Position N 46°33' E 032°18'.

Length 89 m; draft 3 m.

Type: Cargo ship. MMSI: 271000450.

Date/timePositionNaut miles runAvg speedWind from/ knotsBaromVisibWave heightAir tempDewpointWater temp
2015-Jul-02 08:34N 46°33' E 032°18'1010.0
2015-Jul-02 07:34N 46°32' E 032°03'1110.5
2015-Jul-02 06:33N 46°36' E 031°49'1010.4
2015-Jul-02 05:33N 46°35' E 031°34'10 9.4
2015-Jul-02 04:32N 46°35' E 031°20'36 6.8
2015-Jul-01 23:15N 45°60' E 031°07'4 6.2
2015-Jul-01 22:33N 45°56' E 031°04'6 6.4
2015-Jul-01 21:33N 45°51' E 030°59'6 6.3
2015-Jul-01 20:34N 45°46' E 030°54'6 6.3
2015-Jul-01 19:34N 45°41' E 030°48'7 6.5
2015-Jul-01 18:33N 45°35' E 030°43'6 6.4
2015-Jul-01 17:33N 45°30' E 030°38'  
2015-Jun-26 15:33N 40°58' E 028°54'0 0.0
2015-Jun-26 14:31N 40°58' E 028°54'0 0.0
2015-Jun-26 13:32N 40°58' E 028°54'0 0.0
2015-Jun-26 12:33N 40°58' E 028°54'0 0.0
2015-Jun-26 11:03N 40°58' E 028°54'1 1.6
2015-Jun-26 10:32N 40°57' E 028°55'6 6.2
2015-Jun-26 09:33N 40°52' E 028°51'295 8.0
2015-Jun-24 20:28N 37°36' E 024°07'11 9.0
2015-Jun-24 19:12N 37°37' E 023°53'6 9.4
2015-Jun-24 18:33N 37°38' E 023°45'8 8.4
2015-Jun-24 17:33N 37°45' E 023°39'8 7.8
2015-Jun-24 16:33N 37°50' E 023°31'9 8.6
2015-Jun-24 15:33N 37°52' E 023°21'9 8.7
2015-Jun-24 14:33N 37°53' E 023°10'22 7.2
2015-Jun-24 11:33N 38°06' E 022°47'  

Dump ship's entire track history